Nearby METAR Reports

 

EGNM - Leeds And Bradford, United Kingdom
Distance from station: N 11mi, 18km
Updated: 19/10/2019 05:20
Mostly cloudy
Mostly cloudy
 Wind from varies
Wind: varies 2 mph , 4 km/h
Temperature: 8°C
Dew Point: 7°C
Humidity: 93%
Barometer: 994 hPa
Clouds: Mostly cloudy
Visibility: 6 miles , 10 km
Cloud details: Few Clouds 274 m
Mostly cloudy 366 m
2019/10/19 05:20 EGNM 190520Z VRB02KT 9999 FEW009 BKN012 08/07 Q0994
EGXU - Linton-On-Ouse, United Kingdom
Distance from station: NNE 28mi, 45km
Updated: 19/10/2019 04:50
Mostly cloudy
Mostly cloudy
 Wind from S
Wind: S 2 mph , 4 km/h
Temperature: 8°C
Dew Point: 8°C
Humidity: 100%
Barometer: 994 hPa
Clouds: Mostly cloudy
Visibility: 6 miles , 10 km
Cloud details: Few Clouds 823 m
Mostly cloudy 1494 m
2019/10/19 04:50 EGXU 190450Z AUTO 18002KT 9999 // FEW027/// BKN049/// 08/08 Q0994
 
EGCN - Doncaster Sheffield, United Kingdom
Distance from station: ESE 30mi, 45km
Updated: 19/10/2019 05:20
Partly cloudy
Partly cloudy
 Wind from S
Wind: S 10 mph , 17 km/h
Temperature: 8°C
Wind Chill: 5°C
Dew Point: 7°C
Humidity: 93%
Barometer: 996 hPa
Clouds: Partly cloudy
Visibility: 6 miles , 10 km
Cloud details: Partly cloudy 549 m
2019/10/19 05:20 EGCN 190520Z 17009KT 9999 SCT018 08/07 Q0996
EGXZ - Topcliffe RAF, United Kingdom
Distance from station: NNE 36mi, 57km
Updated: 19/10/2019 04:50
Mist, Mostly cloudy
Mist, Mostly cloudy
 Wind from S
Wind: S 2 mph , 4 km/h
Temperature: 8°C
Dew Point: 8°C
Humidity: 100%
Barometer: 994 hPa
Summary: Mist
Clouds: Mostly cloudy
Visibility: 2 miles , 3 km
Cloud details: Mostly cloudy 91 m
Mostly cloudy 823 m
2019/10/19 04:50 EGXZ 190450Z AUTO 18002KT 3000 BR BKN003/// BKN027/// 08/08 Q0994 REDZ
 
EGCC - Manchester Intl, United Kingdom
Distance from station: SW 36mi, 58km
Updated: 19/10/2019 05:20
Overcast
Overcast
 Wind from SSW
Wind: SSW 5 mph , 7 km/h
Temperature: 9°C
Wind Chill: 8°C
Dew Point: 7°C
Humidity: 87%
Barometer: 995 hPa
Clouds: Overcast
Visibility: 6 miles , 10 km
Cloud details: Overcast 366 m
2019/10/19 05:20 EGCC 190520Z AUTO 21004KT 170V240 9999 OVC012 09/07 Q0995 TEMPO SHRA
EGXE - Leeming RAF, United Kingdom
Distance from station: N 40mi, 65km
Updated: 19/10/2019 04:50
Mist, Overcast
Mist, Overcast
 Wind from NW
Wind: NW 7 mph , 11 km/h
Temperature: 8°C
Wind Chill: 6°C
Dew Point: 8°C
Humidity: 100%
Barometer: 994 hPa
Summary: Mist
Clouds: Overcast
Visibility: 2 miles , 4 km
Cloud details: Overcast 91 m
2019/10/19 04:50 EGXE 190450Z AUTO 32006KT 4000 BR OVC003/// 08/08 Q0994